Time;durP1;ratioP1;P1;durP2;ratioP2;P2;SDS_P1;SDS_P2;PMS_P1;PMS_P2;Temp;Humidity;BMP_temperature;BMP_pressure;BME280_temperature;BME280_humidity;BME280_pressure;Samples;Min_cycle;Max_cycle;Signal;HPM_P1;HPM_P2
2023/02/26 00:02:11;;;;;;;2.00;1.57;;;-0.40;97.30;;;;;;5009505;28;20236;-86
2023/02/26 00:04:37;;;;;;;1.33;1.23;;;-0.40;97.30;;;;;;5015891;28;20204;-88
2023/02/26 00:07:03;;;;;;;2.00;1.73;;;-0.40;97.30;;;;;;5006456;28;20169;-88
2023/02/26 00:09:29;;;;;;;1.50;1.40;;;-0.40;97.30;;;;;;5014452;28;20264;-86
2023/02/26 00:11:55;;;;;;;1.30;1.20;;;-0.40;97.30;;;;;;5014746;28;20497;-88
2023/02/26 00:14:21;;;;;;;1.10;1.00;;;-0.40;97.30;;;;;;4998544;28;20630;-88
2023/02/26 00:16:56;;;;;;;3.17;2.03;;;-0.40;97.30;;;;;;5011032;28;20975;-89
2023/02/26 00:19:22;;;;;;;1.20;1.10;;;-0.40;97.30;;;;;;5010444;28;20183;-88
2023/02/26 00:21:48;;;;;;;1.30;1.20;;;-0.40;97.30;;;;;;5022010;28;20440;-88
2023/02/26 00:24:13;;;;;;;1.10;1.00;;;-0.40;97.30;;;;;;5014310;28;20625;-88
2023/02/26 00:26:39;;;;;;;1.33;1.23;;;-0.40;97.30;;;;;;5013822;28;20420;-86
2023/02/26 00:29:04;;;;;;;1.17;1.07;;;-0.40;97.30;;;;;;5005977;28;20199;-86
2023/02/26 00:31:30;;;;;;;2.70;1.67;;;-0.40;97.30;;;;;;5005727;28;20177;-85
2023/02/26 00:33:57;;;;;;;1.20;1.10;;;-0.40;97.30;;;;;;5030761;28;20323;-88
2023/02/26 00:36:41;;;;;;;1.10;1.00;;;-0.50;97.30;;;;;;5006429;28;20595;-89
2023/02/26 00:39:31;;;;;;;36.60;3.20;;;-0.50;97.30;;;;;;5011752;28;20505;-87
2023/02/26 00:41:57;;;;;;;1.20;1.10;;;-0.50;97.30;;;;;;5016903;28;21151;-84
2023/02/26 00:44:23;;;;;;;1.23;1.13;;;-0.50;97.30;;;;;;5009433;28;20601;-86
2023/02/26 00:47:11;;;;;;;1.33;1.30;;;-0.50;97.30;;;;;;5017199;28;20318;-89
2023/02/26 00:49:43;;;;;;;1.10;1.00;;;-0.50;97.30;;;;;;4987986;28;20578;-88
2023/02/26 00:52:47;;;;;;;1.10;1.00;;;-0.50;97.30;;;;;;5006334;28;20990;-88
2023/02/26 00:55:13;;;;;;;1.13;1.03;;;-0.50;97.30;;;;;;5012695;28;20438;-88
2023/02/26 00:57:39;;;;;;;1.97;1.87;;;-0.50;97.30;;;;;;5007179;28;20435;-88
2023/02/26 01:00:06;;;;;;;1.40;1.30;;;-0.50;97.30;;;;;;5012690;28;20180;-87
2023/02/26 01:02:33;;;;;;;0.97;0.87;;;-0.40;97.30;;;;;;5001792;28;20261;-88
2023/02/26 01:04:59;;;;;;;2.23;2.03;;;-0.40;97.30;;;;;;5029535;28;20455;-87
2023/02/26 01:07:28;;;;;;;1.10;1.00;;;-0.50;97.30;;;;;;5017213;28;20468;-90
2023/02/26 01:09:54;;;;;;;1.20;1.10;;;-0.50;97.30;;;;;;5017987;28;20521;-88
2023/02/26 01:12:20;;;;;;;1.40;1.30;;;-0.40;97.30;;;;;;5005487;28;20459;-88
2023/02/26 01:14:46;;;;;;;2.50;2.33;;;-0.50;97.30;;;;;;5013209;28;20184;-87
2023/02/26 01:17:33;;;;;;;1.60;1.50;;;-0.50;97.30;;;;;;5029002;28;20500;-87
2023/02/26 01:20:16;;;;;;;1.10;1.00;;;-0.50;97.30;;;;;;5000870;28;20172;-86
2023/02/26 01:22:48;;;;;;;1.00;0.90;;;-0.50;97.30;;;;;;5016498;28;20611;-87
2023/02/26 01:25:20;;;;;;;1.40;1.30;;;-0.50;97.30;;;;;;5008618;28;20462;-86
2023/02/26 01:27:46;;;;;;;1.10;1.00;;;-0.50;97.30;;;;;;5005601;28;20985;-87
2023/02/26 01:30:12;;;;;;;1.30;1.20;;;-0.50;97.30;;;;;;5002593;28;20427;-87
2023/02/26 01:33:06;;;;;;;1.30;1.20;;;-0.50;97.30;;;;;;5015399;28;20256;-86
2023/02/26 01:35:53;;;;;;;1.10;1.00;;;-0.50;97.30;;;;;;5006973;28;20451;-87
2023/02/26 01:38:27;;;;;;;2.07;1.93;;;-0.60;97.30;;;;;;4996712;28;20908;-88
2023/02/26 01:41:04;;;;;;;2.83;1.60;;;-0.60;97.30;;;;;;5004676;28;20967;-87
2023/02/26 01:43:45;;;;;;;1.20;1.10;;;-0.60;97.30;;;;;;5007673;28;20545;-87
2023/02/26 01:46:55;;;;;;;1.20;1.10;;;-0.60;97.30;;;;;;5027952;28;20418;-87
2023/02/26 01:49:21;;;;;;;1.10;1.00;;;-0.60;97.30;;;;;;5004466;28;20456;-88
2023/02/26 01:51:48;;;;;;;1.00;0.90;;;-0.60;97.30;;;;;;5032177;28;20501;-86
2023/02/26 01:54:16;;;;;;;1.23;1.20;;;-0.60;97.30;;;;;;5009374;28;20464;-88
2023/02/26 01:56:44;;;;;;;2.70;1.63;;;-0.60;97.30;;;;;;5005841;28;20420;-88
2023/02/26 01:59:13;;;;;;;1.40;1.30;;;-0.60;97.30;;;;;;5007410;28;20442;-88
2023/02/26 02:01:39;;;;;;;1.20;1.10;;;-0.60;97.30;;;;;;5005539;28;20412;-88
2023/02/26 02:04:10;;;;;;;1.10;1.00;;;-0.60;97.30;;;;;;5009074;28;20459;-88
2023/02/26 02:06:35;;;;;;;2.63;1.57;;;-0.60;97.30;;;;;;5014781;28;20217;-86
2023/02/26 02:09:03;;;;;;;3.53;1.77;;;-0.60;97.30;;;;;;5025697;28;20503;-88
2023/02/26 02:11:29;;;;;;;1.20;1.10;;;-0.50;97.30;;;;;;5015298;28;20234;-87
2023/02/26 02:14:20;;;;;;;1.40;1.30;;;-0.50;97.30;;;;;;5007169;28;20430;-88
2023/02/26 02:17:08;;;;;;;1.10;1.00;;;-0.50;97.30;;;;;;5015160;28;20423;-87
2023/02/26 02:20:11;;;;;;;3.43;3.23;;;-0.50;97.30;;;;;;5014836;28;20968;-87
2023/02/26 02:22:58;;;;;;;1.10;1.00;;;-0.50;97.30;;;;;;5015443;28;20446;-87
2023/02/26 02:25:27;;;;;;;1.53;1.43;;;-0.50;97.30;;;;;;5008075;28;20992;-87
2023/02/26 02:28:07;;;;;;;1.17;1.07;;;-0.50;97.30;;;;;;5011876;28;20424;-87
2023/02/26 02:31:01;;;;;;;5.37;1.17;;;-0.50;97.30;;;;;;5003305;28;20430;-87
2023/02/26 02:33:33;;;;;;;1.17;1.07;;;-0.50;97.30;;;;;;5010763;28;20536;-86
2023/02/26 02:36:05;;;;;;;1.03;0.93;;;-0.50;97.30;;;;;;5014916;28;20408;-86
2023/02/26 02:38:37;;;;;;;1.10;1.00;;;-0.50;97.30;;;;;;5006860;28;20420;-87
2023/02/26 02:41:21;;;;;;;1.30;1.20;;;-0.50;97.30;;;;;;4999116;28;20426;-87
2023/02/26 02:43:49;;;;;;;1.20;1.10;;;-0.50;97.30;;;;;;4999195;28;20542;-87
2023/02/26 02:46:23;;;;;;;1.23;1.13;;;-0.50;97.30;;;;;;5009010;28;20417;-87
2023/02/26 02:49:01;;;;;;;1.33;1.23;;;-0.50;97.30;;;;;;5013503;28;20430;-86
2023/02/26 02:51:34;;;;;;;1.70;1.60;;;-0.50;97.30;;;;;;5006954;28;20416;-85
2023/02/26 02:54:09;;;;;;;1.20;1.10;;;-0.50;97.30;;;;;;4999996;28;20425;-86
2023/02/26 02:56:40;;;;;;;1.50;1.40;;;-0.60;97.30;;;;;;5036141;28;20421;-86
2023/02/26 02:59:31;;;;;;;1.10;1.00;;;-0.60;97.30;;;;;;5018778;28;20505;-87
2023/02/26 03:02:19;;;;;;;1.10;1.00;;;-0.60;97.30;;;;;;5018100;28;20451;-87
2023/02/26 03:04:45;;;;;;;1.10;1.00;;;-0.60;97.30;;;;;;5010902;28;20479;-88
2023/02/26 03:07:10;;;;;;;1.40;1.30;;;-0.60;97.30;;;;;;5018204;28;20439;-88
2023/02/26 03:09:36;;;;;;;1.20;1.10;;;-0.60;97.30;;;;;;5017972;28;20173;-87
2023/02/26 03:12:02;;;;;;;1.00;0.90;;;-0.70;97.30;;;;;;5030362;28;20188;-87
2023/02/26 03:14:29;;;;;;;1.10;1.00;;;-0.70;97.30;;;;;;5038888;28;20218;-88
2023/02/26 03:17:21;;;;;;;1.33;1.23;;;-0.70;97.30;;;;;;5037046;28;20423;-87
2023/02/26 03:19:58;;;;;;;1.67;1.57;;;-0.70;97.30;;;;;;5036920;28;20462;-87
2023/02/26 03:22:35;;;;;;;1.00;0.90;;;-0.70;97.30;;;;;;5022160;28;20423;-87
2023/02/26 03:25:47;;;;;;;1.30;1.20;;;-0.70;97.30;;;;;;5028111;28;20457;-87
2023/02/26 03:28:27;;;;;;;0.90;0.80;;;-0.70;97.30;;;;;;4970322;28;20506;-87
2023/02/26 03:31:04;;;;;;;1.47;1.37;;;-0.70;97.30;;;;;;5019023;28;20463;-87
2023/02/26 03:33:49;;;;;;;1.10;1.00;;;-0.70;97.30;;;;;;5015892;28;20531;-84
2023/02/26 03:36:24;;;;;;;1.17;1.07;;;-0.70;97.30;;;;;;5016267;28;20450;-86
2023/02/26 03:39:06;;;;;;;1.47;1.37;;;-0.70;97.30;;;;;;5015772;28;20481;-87
2023/02/26 03:41:55;;;;;;;1.27;1.17;;;-0.70;97.30;;;;;;5016454;28;20420;-85
2023/02/26 03:44:29;;;;;;;1.50;1.40;;;-0.70;97.30;;;;;;5003961;28;20519;-87
2023/02/26 03:47:02;;;;;;;1.80;1.30;;;-0.70;97.30;;;;;;5011727;28;20397;-86
2023/02/26 03:49:42;;;;;;;1.50;1.40;;;-0.70;97.30;;;;;;5003322;28;20436;-85
2023/02/26 03:52:08;;;;;;;1.07;0.97;;;-0.70;97.30;;;;;;4995779;28;20444;-86
2023/02/26 03:54:38;;;;;;;4.80;2.03;;;-0.70;97.30;;;;;;5011466;28;20494;-87
2023/02/26 03:57:04;;;;;;;2.80;1.70;;;-0.70;97.30;;;;;;5008331;28;20669;-87
2023/02/26 03:59:31;;;;;;;7.13;4.00;;;-0.70;97.30;;;;;;5015411;28;20424;-87
2023/02/26 04:02:12;;;;;;;1.30;1.20;;;-0.70;97.30;;;;;;5006306;28;20235;-86
2023/02/26 04:04:46;;;;;;;1.10;1.00;;;-0.70;97.30;;;;;;5006282;28;20467;-85
2023/02/26 04:07:14;;;;;;;1.37;1.27;;;-0.70;97.30;;;;;;4998558;28;20518;-87
2023/02/26 04:09:41;;;;;;;1.77;1.67;;;-0.70;97.30;;;;;;5014230;28;20919;-86
2023/02/26 04:12:07;;;;;;;1.30;1.20;;;-0.70;97.30;;;;;;5001493;28;20445;-86
2023/02/26 04:14:33;;;;;;;3.17;1.10;;;-0.80;97.30;;;;;;4998678;28;20430;-86
2023/02/26 04:16:58;;;;;;;1.23;1.13;;;-0.80;97.30;;;;;;5021950;28;20184;-87
2023/02/26 04:19:24;;;;;;;1.20;1.10;;;-0.70;97.30;;;;;;5005662;28;20201;-86
2023/02/26 04:21:49;;;;;;;1.43;1.33;;;-0.70;97.30;;;;;;5005867;28;20209;-87
2023/02/26 04:24:15;;;;;;;1.47;1.37;;;-0.70;97.30;;;;;;5013771;28;20318;-86
2023/02/26 04:26:41;;;;;;;1.03;0.93;;;-0.70;97.30;;;;;;5005177;28;20193;-86
2023/02/26 04:29:06;;;;;;;1.20;1.10;;;-0.70;97.30;;;;;;4994230;28;20178;-85
2023/02/26 04:31:32;;;;;;;1.20;1.10;;;-0.70;97.30;;;;;;5003326;28;20182;-85
2023/02/26 04:33:57;;;;;;;1.73;1.63;;;-0.70;97.30;;;;;;5002273;28;20237;-84
2023/02/26 04:36:23;;;;;;;2.67;1.60;;;-0.70;97.30;;;;;;5006389;28;20189;-86
2023/02/26 04:38:48;;;;;;;1.10;1.00;;;-0.70;97.30;;;;;;5002264;28;20279;-86
2023/02/26 04:41:14;;;;;;;1.20;1.10;;;-0.70;97.30;;;;;;5007144;28;20185;-85
2023/02/26 04:43:39;;;;;;;1.10;1.00;;;-0.70;97.30;;;;;;5013270;28;20204;-85
2023/02/26 04:46:04;;;;;;;1.13;1.03;;;-0.70;97.30;;;;;;5007405;28;20177;-87
2023/02/26 04:48:30;;;;;;;1.37;1.27;;;-0.60;97.30;;;;;;5007132;28;20177;-85
2023/02/26 04:50:55;;;;;;;1.00;0.90;;;-0.60;97.30;;;;;;4994490;28;20559;-87
2023/02/26 04:53:21;;;;;;;1.00;0.90;;;-0.60;97.30;;;;;;4994021;28;20264;-86
2023/02/26 04:55:47;;;;;;;1.10;1.00;;;-0.60;97.30;;;;;;5011330;28;20238;-86
2023/02/26 04:58:13;;;;;;;1.10;1.00;;;-0.60;97.30;;;;;;5013976;28;20174;-87
2023/02/26 05:00:39;;;;;;;1.10;1.00;;;-0.60;97.30;;;;;;5005860;28;20660;-85
2023/02/26 05:03:05;;;;;;;1.00;0.90;;;-0.60;97.30;;;;;;5010068;28;20198;-86
2023/02/26 05:05:30;;;;;;;1.20;1.10;;;-0.60;97.30;;;;;;5001737;28;20208;-86
2023/02/26 05:07:56;;;;;;;1.20;1.10;;;-0.60;97.30;;;;;;5013727;28;20416;-86
2023/02/26 05:10:22;;;;;;;1.27;1.17;;;-0.70;97.30;;;;;;5013762;28;20173;-87
2023/02/26 05:12:48;;;;;;;1.20;1.10;;;-0.70;97.30;;;;;;5012876;28;20212;-87
2023/02/26 05:15:14;;;;;;;1.10;1.00;;;-0.70;97.30;;;;;;5009249;28;20424;-86
2023/02/26 05:17:39;;;;;;;1.30;1.20;;;-0.70;97.30;;;;;;5013594;28;20180;-86
2023/02/26 05:20:08;;;;;;;1.73;1.63;;;-0.70;97.30;;;;;;5010474;28;20181;-87
2023/02/26 05:22:34;;;;;;;1.43;1.33;;;-0.70;97.30;;;;;;5001075;28;20211;-87
2023/02/26 05:25:00;;;;;;;1.00;0.90;;;-0.80;97.30;;;;;;5004578;28;20540;-87
2023/02/26 05:27:25;;;;;;;1.20;1.10;;;-0.80;97.30;;;;;;5010086;28;20416;-87
2023/02/26 05:29:51;;;;;;;1.10;1.00;;;-0.80;97.30;;;;;;5012956;28;20177;-87
2023/02/26 05:32:16;;;;;;;1.40;1.30;;;-0.80;97.30;;;;;;5018673;28;20232;-86
2023/02/26 05:34:42;;;;;;;1.40;1.30;;;-0.80;97.30;;;;;;5012623;28;20195;-86
2023/02/26 05:37:07;;;;;;;1.93;1.37;;;-0.80;97.30;;;;;;5005966;28;20642;-87
2023/02/26 05:39:33;;;;;;;1.10;1.00;;;-0.80;97.30;;;;;;5004452;28;20185;-86
2023/02/26 05:41:58;;;;;;;4.87;2.87;;;-0.80;97.30;;;;;;4995949;28;20201;-85
2023/02/26 05:44:24;;;;;;;7.30;1.50;;;-0.80;97.30;;;;;;5008071;28;20219;-87
2023/02/26 05:46:49;;;;;;;1.47;1.20;;;-0.80;97.30;;;;;;5012208;28;20271;-86
2023/02/26 05:49:15;;;;;;;1.10;1.00;;;-0.80;97.30;;;;;;5012742;28;20197;-87
2023/02/26 05:51:41;;;;;;;1.10;1.00;;;-0.80;97.30;;;;;;4996284;28;20648;-86
2023/02/26 05:54:07;;;;;;;1.60;1.50;;;-0.80;97.30;;;;;;5004115;28;20177;-87
2023/02/26 05:56:33;;;;;;;1.00;0.90;;;-0.80;97.30;;;;;;5004957;28;20440;-87
2023/02/26 05:58:58;;;;;;;1.10;1.00;;;-0.80;97.30;;;;;;5011929;28;20458;-86
2023/02/26 06:01:24;;;;;;;1.87;1.30;;;-0.80;97.30;;;;;;5012405;28;20195;-87
2023/02/26 06:03:49;;;;;;;1.10;1.00;;;-0.80;97.30;;;;;;5011665;28;20205;-86
2023/02/26 06:06:17;;;;;;;1.10;1.00;;;-0.80;97.30;;;;;;4996976;28;20235;-87
2023/02/26 06:08:43;;;;;;;1.10;1.00;;;-0.80;97.30;;;;;;5012616;28;20184;-86
2023/02/26 06:11:09;;;;;;;1.03;0.93;;;-0.80;97.30;;;;;;5012180;28;20434;-87
2023/02/26 06:13:34;;;;;;;1.10;1.00;;;-0.70;97.30;;;;;;5005237;28;20567;-86
2023/02/26 06:16:00;;;;;;;1.10;1.00;;;-0.70;97.30;;;;;;5000607;28;20192;-87
2023/02/26 06:18:25;;;;;;;1.40;1.30;;;-0.70;97.30;;;;;;5007034;28;20311;-87
2023/02/26 06:20:51;;;;;;;1.10;1.00;;;-0.70;97.30;;;;;;5002604;28;20173;-87
2023/02/26 06:23:17;;;;;;;1.57;1.47;;;-0.70;97.30;;;;;;4997351;28;20311;-86
2023/02/26 06:25:42;;;;;;;1.20;1.10;;;-0.60;97.30;;;;;;5012596;28;20310;-87
2023/02/26 06:28:08;;;;;;;1.30;1.20;;;-0.60;97.30;;;;;;5003653;28;20177;-87
2023/02/26 06:30:34;;;;;;;1.10;1.00;;;-0.60;97.30;;;;;;5004204;28;20179;-87
2023/02/26 06:32:59;;;;;;;1.20;1.10;;;-0.60;97.30;;;;;;5012106;28;20242;-87
2023/02/26 06:35:27;;;;;;;1.10;1.00;;;-0.60;97.30;;;;;;5005989;28;20312;-86
2023/02/26 06:37:52;;;;;;;1.10;1.00;;;-0.50;97.30;;;;;;4993045;28;20716;-86
2023/02/26 06:40:18;;;;;;;1.20;1.10;;;-0.50;97.30;;;;;;5012119;28;20482;-87
2023/02/26 06:42:43;;;;;;;1.20;1.10;;;-0.50;97.30;;;;;;5002830;28;20200;-87
2023/02/26 06:45:09;;;;;;;1.30;1.20;;;-0.50;97.30;;;;;;4995746;28;20181;-87
2023/02/26 06:47:35;;;;;;;1.10;1.00;;;-0.50;97.30;;;;;;5011550;28;20208;-87
2023/02/26 06:50:02;;;;;;;1.30;1.20;;;-0.50;97.30;;;;;;5012898;28;20972;-85
2023/02/26 06:52:28;;;;;;;1.10;1.00;;;-0.40;97.30;;;;;;5016639;28;20569;-87
2023/02/26 06:54:54;;;;;;;1.20;1.10;;;-0.40;97.30;;;;;;5001853;28;20415;-87
2023/02/26 06:57:19;;;;;;;1.10;1.00;;;-0.40;97.30;;;;;;5005320;28;20457;-87
2023/02/26 06:59:45;;;;;;;1.33;1.23;;;-0.40;97.30;;;;;;5003279;28;20174;-87
2023/02/26 07:02:19;;;;;;;1.00;0.90;;;-0.40;97.30;;;;;;5008686;28;20691;-87
2023/02/26 07:04:44;;;;;;;1.03;0.93;;;-0.30;97.30;;;;;;4999825;28;20197;-86
2023/02/26 07:07:10;;;;;;;1.10;1.00;;;-0.30;97.30;;;;;;5010874;28;20385;-86
2023/02/26 07:09:36;;;;;;;1.00;0.90;;;-0.30;97.30;;;;;;5010920;28;20165;-86
2023/02/26 07:12:02;;;;;;;1.10;1.00;;;-0.30;97.30;;;;;;4999852;28;20193;-86
2023/02/26 07:14:28;;;;;;;1.00;0.90;;;-0.20;97.30;;;;;;5005339;28;20414;-89
2023/02/26 07:16:53;;;;;;;1.10;1.00;;;-0.20;97.30;;;;;;5010281;28;20248;-86
2023/02/26 07:19:19;;;;;;;1.00;0.90;;;-0.20;97.30;;;;;;5002511;28;20228;-86
2023/02/26 07:21:44;;;;;;;5.40;1.63;;;-0.20;97.30;;;;;;5002596;28;20176;-85
2023/02/26 07:24:10;;;;;;;2.00;1.20;;;-0.20;97.30;;;;;;5010889;28;20192;-86
2023/02/26 07:26:35;;;;;;;1.00;0.90;;;-0.10;97.30;;;;;;5005259;28;20171;-86
2023/02/26 07:29:01;;;;;;;1.00;0.90;;;-0.10;97.30;;;;;;5001583;28;20164;-86
2023/02/26 07:31:26;;;;;;;1.03;0.93;;;-0.10;97.30;;;;;;5001368;28;20185;-85
2023/02/26 07:33:52;;;;;;;1.03;0.93;;;-0.10;97.30;;;;;;5002294;28;20686;-86
2023/02/26 07:36:17;;;;;;;1.10;1.00;;;-0.10;97.30;;;;;;5002587;28;20212;-86
2023/02/26 07:38:43;;;;;;;1.00;0.90;;;-0.10;97.30;;;;;;4999434;28;20598;-86
2023/02/26 07:41:09;;;;;;;1.20;1.10;;;-0.10;97.30;;;;;;5004632;28;20200;-86
2023/02/26 07:43:34;;;;;;;1.30;1.20;;;0.00;97.30;;;;;;5011534;28;20231;-85
2023/02/26 07:46:00;;;;;;;1.20;1.10;;;0.00;97.30;;;;;;5010050;28;20564;-86
2023/02/26 07:48:25;;;;;;;1.00;0.90;;;0.00;97.30;;;;;;5009386;28;20169;-85
2023/02/26 07:50:52;;;;;;;7.47;1.13;;;0.00;97.30;;;;;;5011311;28;20261;-86
2023/02/26 07:53:18;;;;;;;1.10;1.00;;;0.00;97.30;;;;;;5002968;28;20196;-86
2023/02/26 07:55:43;;;;;;;1.63;1.17;;;0.00;97.30;;;;;;5005393;28;20399;-86
2023/02/26 07:58:09;;;;;;;1.20;1.10;;;0.10;97.30;;;;;;5015369;28;21271;-85
2023/02/26 08:00:34;;;;;;;3.13;1.20;;;0.10;97.30;;;;;;5007790;28;20171;-86
2023/02/26 08:03:00;;;;;;;1.20;1.10;;;0.10;97.30;;;;;;5008860;28;20200;-86
2023/02/26 08:05:25;;;;;;;1.10;1.00;;;0.10;97.30;;;;;;5007940;28;20295;-86
2023/02/26 08:07:51;;;;;;;1.10;1.00;;;0.20;97.30;;;;;;5009296;28;20173;-86
2023/02/26 08:10:17;;;;;;;1.00;0.90;;;0.30;97.30;;;;;;5010510;28;20187;-85
2023/02/26 08:12:42;;;;;;;1.10;1.00;;;0.30;97.30;;;;;;5008693;28;20200;-86
2023/02/26 08:15:08;;;;;;;1.07;0.97;;;0.40;97.30;;;;;;5017502;28;20169;-87
2023/02/26 08:17:34;;;;;;;1.00;0.90;;;0.40;97.30;;;;;;5034381;28;20188;-87
2023/02/26 08:20:00;;;;;;;2.70;1.20;;;0.40;97.30;;;;;;5014601;28;20410;-85
2023/02/26 08:22:25;;;;;;;1.20;1.10;;;0.50;97.30;;;;;;5008298;28;20893;-86
2023/02/26 08:24:51;;;;;;;3.00;1.57;;;0.50;97.30;;;;;;5005776;28;20200;-86
2023/02/26 08:27:16;;;;;;;1.10;1.00;;;0.50;97.30;;;;;;5003814;28;20260;-86
2023/02/26 08:29:44;;;;;;;1.23;1.13;;;0.60;97.30;;;;;;5003238;28;20176;-85
2023/02/26 08:32:10;;;;;;;1.23;1.13;;;0.60;97.30;;;;;;5004598;28;20212;-86
2023/02/26 08:34:36;;;;;;;1.00;0.90;;;0.70;97.30;;;;;;5003088;28;20263;-85
2023/02/26 08:37:01;;;;;;;1.00;0.90;;;0.70;97.30;;;;;;5006006;28;20774;-86
2023/02/26 08:39:27;;;;;;;1.00;0.90;;;0.70;97.30;;;;;;5005037;28;20180;-85
2023/02/26 08:41:52;;;;;;;1.10;1.00;;;0.70;97.30;;;;;;5004605;28;20228;-86
2023/02/26 08:44:18;;;;;;;1.00;0.90;;;0.70;97.30;;;;;;5002476;28;20222;-85
2023/02/26 08:46:43;;;;;;;3.43;1.87;;;0.70;97.30;;;;;;5001393;28;20189;-85
2023/02/26 08:49:09;;;;;;;1.33;1.23;;;0.70;97.30;;;;;;5005110;28;20173;-85
2023/02/26 08:51:34;;;;;;;1.13;1.03;;;0.70;97.30;;;;;;5001417;28;20176;-86
2023/02/26 08:54:00;;;;;;;1.67;1.57;;;0.70;97.30;;;;;;5005729;28;20198;-85
2023/02/26 08:56:25;;;;;;;1.10;1.00;;;0.80;97.30;;;;;;5000998;28;20327;-87
2023/02/26 08:58:51;;;;;;;1.10;1.00;;;0.80;97.30;;;;;;5002349;28;20178;-85
2023/02/26 09:01:16;;;;;;;2.37;2.17;;;0.90;97.30;;;;;;5005427;28;20180;-86
2023/02/26 09:03:42;;;;;;;1.07;0.97;;;0.90;97.30;;;;;;5001430;28;20929;-87
2023/02/26 09:06:07;;;;;;;1.10;1.00;;;0.90;97.30;;;;;;5002892;28;20181;-87
2023/02/26 09:08:33;;;;;;;1.70;1.63;;;0.90;97.30;;;;;;5008710;28;20180;-87
2023/02/26 09:11:00;;;;;;;1.00;0.90;;;0.90;97.30;;;;;;5012428;28;20227;-87
2023/02/26 09:13:26;;;;;;;0.93;0.83;;;0.90;97.30;;;;;;5007535;28;20204;-87
2023/02/26 09:15:51;;;;;;;1.00;0.90;;;0.90;97.30;;;;;;5013794;28;20762;-86
2023/02/26 09:18:17;;;;;;;1.10;1.00;;;0.90;97.30;;;;;;5001793;28;20268;-87
2023/02/26 09:20:43;;;;;;;1.20;1.10;;;0.90;97.30;;;;;;5008943;28;20213;-88
2023/02/26 09:23:09;;;;;;;1.17;1.07;;;0.90;97.30;;;;;;5021319;28;21804;-86
2023/02/26 09:25:35;;;;;;;1.10;1.00;;;0.90;97.30;;;;;;5013289;28;20459;-87
2023/02/26 09:28:01;;;;;;;0.90;0.80;;;1.00;97.30;;;;;;5005011;28;20288;-87
2023/02/26 09:30:26;;;;;;;1.63;1.53;;;1.00;97.30;;;;;;5013437;28;20165;-87
2023/02/26 09:32:52;;;;;;;1.10;1.00;;;1.10;97.30;;;;;;5012730;28;20218;-86
2023/02/26 09:35:17;;;;;;;1.00;0.90;;;1.10;97.30;;;;;;5006916;28;20181;-88
2023/02/26 09:37:43;;;;;;;0.90;0.80;;;1.20;97.30;;;;;;5005238;28;20200;-88
2023/02/26 09:40:24;;;;;;;1.83;1.73;;;1.30;97.30;;;;;;5013224;28;20192;-88
2023/02/26 09:43:10;;;;;;;4.20;3.43;;;1.30;97.30;;;;;;5013728;28;20216;-87
2023/02/26 09:45:40;;;;;;;1.00;0.90;;;1.40;97.30;;;;;;4955424;28;20837;-88
2023/02/26 09:48:07;;;;;;;6.20;2.20;;;1.40;97.30;;;;;;5004506;28;20402;-87
2023/02/26 09:50:52;;;;;;;1.00;0.90;;;1.40;97.30;;;;;;5007497;28;20422;-85
2023/02/26 09:53:30;;;;;;;1.13;1.03;;;1.40;97.30;;;;;;5004947;28;20255;-86
2023/02/26 09:56:15;;;;;;;2.80;1.83;;;1.40;97.30;;;;;;5004251;28;20949;-87
2023/02/26 09:58:42;;;;;;;1.20;1.10;;;1.50;97.30;;;;;;5008621;28;20506;-85
2023/02/26 10:01:30;;;;;;;1.20;1.10;;;1.50;97.30;;;;;;5003825;28;20429;-87
2023/02/26 10:04:42;;;;;;;1.00;0.90;;;1.50;97.30;;;;;;5009934;28;20860;-84
2023/02/26 10:07:19;;;;;;;1.00;0.90;;;1.60;97.30;;;;;;4941304;29;20216;-85
2023/02/26 10:10:11;;;;;;;1.00;0.90;;;1.60;97.30;;;;;;4994108;28;20787;-85
2023/02/26 10:12:39;;;;;;;1.10;1.00;;;1.60;97.30;;;;;;4998346;28;20789;-87
2023/02/26 10:15:29;;;;;;;1.10;1.00;;;1.70;97.30;;;;;;4996545;28;20414;-86
2023/02/26 10:18:33;;;;;;;1.10;1.00;;;1.70;97.30;;;;;;5000729;28;20214;-85
2023/02/26 10:21:21;;;;;;;1.10;1.00;;;1.80;97.30;;;;;;4911304;29;20506;-87
2023/02/26 10:23:56;;;;;;;1.00;0.90;;;1.80;97.30;;;;;;5018140;28;20477;-87
2023/02/26 10:26:48;;;;;;;1.00;0.90;;;1.80;97.30;;;;;;5004127;28;20411;-88
2023/02/26 10:29:24;;;;;;;1.03;0.93;;;1.90;97.30;;;;;;5001970;28;20919;-85
2023/02/26 10:32:11;;;;;;;1.20;1.13;;;1.90;97.30;;;;;;5004929;28;20764;-90
2023/02/26 10:34:46;;;;;;;1.03;0.93;;;2.00;97.30;;;;;;5002923;28;20220;-87
2023/02/26 10:37:19;;;;;;;1.10;1.00;;;2.00;97.30;;;;;;5020627;28;20829;-87
2023/02/26 10:40:08;;;;;;;1.17;1.07;;;2.10;97.30;;;;;;5006462;28;20418;-86
2023/02/26 10:42:51;;;;;;;0.90;0.80;;;2.30;97.30;;;;;;5008065;28;20451;-86
2023/02/26 10:45:25;;;;;;;0.90;0.80;;;2.40;97.30;;;;;;5005834;28;20305;-87
2023/02/26 10:48:09;;;;;;;1.20;1.10;;;2.40;97.30;;;;;;5006977;28;20443;-86
2023/02/26 10:50:37;;;;;;;1.10;1.00;;;2.40;97.30;;;;;;5010435;28;20923;-86
2023/02/26 10:53:03;;;;;;;2.83;1.30;;;2.40;97.30;;;;;;5003841;28;20240;-87
2023/02/26 10:55:52;;;;;;;1.00;0.90;;;2.50;97.30;;;;;;5003299;28;20603;-87
2023/02/26 10:58:23;;;;;;;1.00;0.90;;;2.60;97.30;;;;;;5002290;28;20221;-86
2023/02/26 11:00:52;;;;;;;1.00;0.90;;;2.70;97.30;;;;;;5020589;28;20228;-87
2023/02/26 11:03:21;;;;;;;0.90;0.80;;;2.80;97.30;;;;;;5005902;28;20438;-84
2023/02/26 11:05:47;;;;;;;1.13;1.03;;;2.90;97.30;;;;;;5013759;28;20462;-86
2023/02/26 11:08:36;;;;;;;0.97;0.87;;;2.90;97.30;;;;;;5003587;28;20698;-86
2023/02/26 11:11:04;;;;;;;1.20;1.10;;;2.90;96.90;;;;;;5025881;28;20672;-86
2023/02/26 11:13:32;;;;;;;1.10;1.00;;;2.80;96.80;;;;;;5008005;28;20256;-85
2023/02/26 11:16:02;;;;;;;1.00;0.90;;;2.90;97.30;;;;;;5006472;28;20422;-86
2023/02/26 11:18:40;;;;;;;0.90;0.80;;;2.90;97.30;;;;;;5009097;28;20410;-87
2023/02/26 11:21:07;;;;;;;1.00;0.90;;;2.90;97.10;;;;;;5010725;28;20476;-86
2023/02/26 11:23:33;;;;;;;1.10;1.00;;;3.00;97.30;;;;;;5005354;28;20446;-87
2023/02/26 11:26:05;;;;;;;1.00;0.90;;;3.00;97.20;;;;;;5006388;28;20414;-87
2023/02/26 11:28:43;;;;;;;1.00;0.90;;;3.10;97.10;;;;;;5023779;28;20414;-86
2023/02/26 11:31:11;;;;;;;1.00;0.90;;;3.20;97.30;;;;;;5009018;28;20440;-86
2023/02/26 11:33:38;;;;;;;1.10;1.00;;;3.20;96.90;;;;;;5013020;28;20514;-87
2023/02/26 11:36:13;;;;;;;0.93;0.83;;;3.20;97.20;;;;;;5016784;28;20430;-87
2023/02/26 11:38:39;;;;;;;1.20;1.10;;;3.10;96.20;;;;;;5012842;28;21025;-87
2023/02/26 11:41:06;;;;;;;1.00;0.90;;;2.90;95.40;;;;;;5001423;28;20910;-87
2023/02/26 11:43:41;;;;;;;1.20;1.10;;;2.80;96.30;;;;;;5015662;28;20239;-85
2023/02/26 11:46:07;;;;;;;1.20;1.10;;;2.90;96.80;;;;;;5008787;28;20916;-86
2023/02/26 11:48:44;;;;;;;1.00;0.90;;;2.90;97.10;;;;;;5009404;28;20407;-85
2023/02/26 11:51:29;;;;;;;0.93;0.83;;;3.00;97.30;;;;;;5015293;28;20410;-86
2023/02/26 11:54:00;;;;;;;1.00;0.90;;;3.00;96.40;;;;;;5005867;28;21125;-87
2023/02/26 11:56:40;;;;;;;1.20;1.10;;;3.00;95.90;;;;;;5005719;28;20424;-86
2023/02/26 11:59:38;;;;;;;1.10;1.00;;;3.00;95.40;;;;;;5019330;28;20413;-86
2023/02/26 12:02:12;;;;;;;1.00;0.90;;;2.90;94.10;;;;;;4999311;28;21048;-86
2023/02/26 12:04:43;;;;;;;1.00;0.90;;;3.00;94.50;;;;;;5017171;28;20536;-86
2023/02/26 12:07:13;;;;;;;1.40;1.30;;;3.10;93.90;;;;;;5007772;28;20949;-87
2023/02/26 12:09:39;;;;;;;1.20;1.10;;;3.10;94.60;;;;;;5034975;28;20423;-86
2023/02/26 12:12:26;;;;;;;1.00;0.90;;;3.20;94.00;;;;;;5026438;28;21012;-86
2023/02/26 12:15:07;;;;;;;1.30;1.20;;;3.40;94.90;;;;;;5002145;28;20184;-86
2023/02/26 12:17:52;;;;;;;0.97;0.87;;;3.60;95.50;;;;;;5028099;28;20921;-87
2023/02/26 12:20:57;;;;;;;1.40;1.07;;;3.80;95.90;;;;;;5017123;28;20513;-86
2023/02/26 12:23:45;;;;;;;1.00;0.90;;;4.00;96.40;;;;;;5034680;28;20445;-87
2023/02/26 12:26:32;;;;;;;0.90;0.80;;;4.00;96.10;;;;;;4996792;28;20434;-87
2023/02/26 12:29:15;;;;;;;1.10;1.00;;;3.90;94.70;;;;;;5034613;28;20235;-87
2023/02/26 12:32:05;;;;;;;1.00;0.90;;;3.80;94.20;;;;;;5016479;28;20213;-86
2023/02/26 12:35:22;;;;;;;1.00;0.90;;;3.60;93.20;;;;;;5019603;28;20913;-87
2023/02/26 12:37:56;;;;;;;1.10;1.00;;;3.50;93.20;;;;;;4942682;29;20423;-87
2023/02/26 12:40:50;;;;;;;1.10;1.00;;;3.40;93.40;;;;;;4946164;28;20413;-87
2023/02/26 12:43:29;;;;;;;1.50;1.40;;;3.40;93.60;;;;;;5006903;28;20435;-87
2023/02/26 12:46:30;;;;;;;1.07;0.97;;;3.40;94.20;;;;;;5016560;28;20516;-88
2023/02/26 12:49:40;;;;;;;1.10;1.00;;;3.60;95.20;;;;;;4996870;28;20450;-87
2023/02/26 12:52:15;;;;;;;1.00;0.90;;;4.20;94.90;;;;;;4956053;28;20709;-86
2023/02/26 12:55:09;;;;;;;4.07;1.53;;;4.70;95.30;;;;;;5000665;28;20826;-87
2023/02/26 12:58:03;;;;;;;1.00;0.90;;;5.10;93.60;;;;;;5028141;28;20245;-87
2023/02/26 13:01:00;;;;;;;1.00;0.90;;;5.20;93.30;;;;;;5008414;28;20425;-86
2023/02/26 13:03:44;;;;;;;1.10;1.00;;;5.30;91.70;;;;;;5016184;28;20445;-86
2023/02/26 13:06:27;;;;;;;1.10;1.00;;;5.10;92.40;;;;;;5008185;28;20270;-87
2023/02/26 13:09:23;;;;;;;1.03;0.93;;;4.70;92.40;;;;;;5008816;28;20462;-87
2023/02/26 13:12:17;;;;;;;1.30;1.20;;;4.40;93.50;;;;;;5007500;28;20419;-86
2023/02/26 13:14:58;;;;;;;1.00;0.90;;;4.40;93.40;;;;;;5004428;28;20490;-86
2023/02/26 13:17:38;;;;;;;1.00;0.90;;;4.50;93.20;;;;;;5007472;28;20411;-87